Time;durP1;ratioP1;P1;durP2;ratioP2;P2;SDS_P1;SDS_P2;PMS_P1;PMS_P2;Temp;Humidity;BMP_temperature;BMP_pressure;BME280_temperature;BME280_humidity;BME280_pressure;Samples;Min_cycle;Max_cycle;Signal;HPM_P1;HPM_P2
2023/01/04 00:01:15;;;;;;;3.58;3.38;;;3.90;99.90;;;;;;6062726;23;20391;-78
2023/01/04 00:03:43;;;;;;;3.67;3.47;;;3.90;99.90;;;;;;6063667;23;20402;-78
2023/01/04 00:06:13;;;;;;;3.10;3.00;;;3.80;99.90;;;;;;6062752;23;20445;-79
2023/01/04 00:08:41;;;;;;;2.63;2.53;;;3.70;99.90;;;;;;6087730;23;20391;-78
2023/01/04 00:11:11;;;;;;;2.15;2.05;;;3.60;99.90;;;;;;6062841;23;20776;-78
2023/01/04 00:13:42;;;;;;;2.25;2.15;;;3.60;99.90;;;;;;6063740;23;20435;-79
2023/01/04 00:16:15;;;;;;;3.07;2.97;;;3.50;99.90;;;;;;6064514;23;20473;-79
2023/01/04 00:18:43;;;;;;;2.83;2.72;;;3.50;99.90;;;;;;6063739;23;20805;-78
2023/01/04 00:21:13;;;;;;;2.10;2.00;;;3.50;99.90;;;;;;6063080;23;20816;-79
2023/01/04 00:23:42;;;;;;;2.67;2.57;;;3.50;99.90;;;;;;6063395;23;20407;-78
2023/01/04 00:26:14;;;;;;;2.80;2.70;;;3.40;99.90;;;;;;6063182;23;20387;-78
2023/01/04 00:28:42;;;;;;;2.63;2.53;;;3.40;99.90;;;;;;6087186;23;20382;-80
2023/01/04 00:31:17;;;;;;;2.35;2.25;;;3.40;99.90;;;;;;6062690;23;20868;-78
2023/01/04 00:33:44;;;;;;;2.70;2.60;;;3.40;99.90;;;;;;6063780;23;20379;-78
2023/01/04 00:36:13;;;;;;;3.03;2.92;;;3.40;99.90;;;;;;6062783;23;20907;-79
2023/01/04 00:38:40;;;;;;;2.22;2.13;;;3.30;99.90;;;;;;6040161;23;20442;-78
2023/01/04 00:41:09;;;;;;;2.60;2.50;;;3.30;99.90;;;;;;6062568;23;20774;-78
2023/01/04 00:43:56;;;;;;;2.63;2.50;;;3.30;99.90;;;;;;6063604;23;20461;-78
2023/01/04 00:46:23;;;;;;;2.72;2.63;;;3.30;99.90;;;;;;6062597;23;20386;-79
2023/01/04 00:48:50;;;;;;;3.17;2.97;;;3.30;99.90;;;;;;6063410;23;20395;-79
2023/01/04 00:51:24;;;;;;;3.40;3.30;;;3.30;99.90;;;;;;6064228;23;20473;-78
2023/01/04 00:53:51;;;;;;;2.20;2.10;;;3.30;99.90;;;;;;6063136;23;20760;-78
2023/01/04 00:56:18;;;;;;;2.20;2.10;;;3.30;99.90;;;;;;6062778;23;20399;-78
2023/01/04 00:58:45;;;;;;;2.05;1.95;;;3.10;99.90;;;;;;6063715;23;20391;-77
2023/01/04 01:01:12;;;;;;;2.20;2.00;;;3.00;99.90;;;;;;6062661;23;20387;-78
2023/01/04 01:03:39;;;;;;;2.05;1.95;;;2.80;99.90;;;;;;6065027;23;20387;-78
2023/01/04 01:06:07;;;;;;;1.92;1.83;;;2.70;99.90;;;;;;6062213;23;20463;-78
2023/01/04 01:08:35;;;;;;;2.30;2.20;;;2.80;99.90;;;;;;6063831;23;20425;-80
2023/01/04 01:11:08;;;;;;;2.20;2.10;;;2.80;99.90;;;;;;6063445;23;20891;-78
2023/01/04 01:13:36;;;;;;;2.63;2.53;;;2.80;99.90;;;;;;6085954;23;20456;-78
2023/01/04 01:16:05;;;;;;;2.70;2.60;;;2.80;99.90;;;;;;6062575;23;20745;-78
2023/01/04 01:18:37;;;;;;;2.30;2.20;;;2.80;99.90;;;;;;6063654;23;20430;-78
2023/01/04 01:21:05;;;;;;;3.00;2.90;;;2.80;99.90;;;;;;6062923;23;20445;-79
2023/01/04 01:23:32;;;;;;;2.85;2.75;;;2.80;99.90;;;;;;6064050;23;20426;-78
2023/01/04 01:26:00;;;;;;;2.70;2.60;;;2.80;99.90;;;;;;6062707;23;20379;-78
2023/01/04 01:28:28;;;;;;;2.83;2.72;;;2.70;99.90;;;;;;6063318;23;20417;-79
2023/01/04 01:30:58;;;;;;;2.45;2.35;;;2.80;99.90;;;;;;6062541;23;20407;-78
2023/01/04 01:33:32;;;;;;;2.72;2.63;;;2.60;99.90;;;;;;6063544;23;20450;-79
2023/01/04 01:36:01;;;;;;;2.38;2.28;;;2.70;99.90;;;;;;6064110;23;20433;-78
2023/01/04 01:38:28;;;;;;;1.90;1.80;;;2.70;99.90;;;;;;6063553;23;20432;-78
2023/01/04 01:40:55;;;;;;;2.10;2.00;;;2.70;99.90;;;;;;6062709;23;20922;-79
2023/01/04 01:43:43;;;;;;;2.07;1.97;;;2.70;99.90;;;;;;6063251;23;20483;-79
2023/01/04 01:46:11;;;;;;;1.77;1.73;;;2.70;99.90;;;;;;6062461;23;20491;-78
2023/01/04 01:48:38;;;;;;;2.78;2.67;;;2.60;99.90;;;;;;6062879;23;20501;-80
2023/01/04 01:51:06;;;;;;;5.00;4.70;;;2.60;99.90;;;;;;6062509;23;20476;-77
2023/01/04 01:53:36;;;;;;;5.35;4.97;;;2.50;99.90;;;;;;6064673;23;20441;-78
2023/01/04 01:56:07;;;;;;;3.80;3.60;;;2.50;99.90;;;;;;6061391;23;20473;-79
2023/01/04 01:58:42;;;;;;;2.92;2.83;;;2.50;99.90;;;;;;6087513;23;20426;-78
2023/01/04 02:01:09;;;;;;;2.70;2.60;;;2.50;99.90;;;;;;6062969;23;20860;-77
2023/01/04 02:03:39;;;;;;;2.75;2.65;;;2.60;99.90;;;;;;6076075;23;20988;-79
2023/01/04 02:06:12;;;;;;;3.07;2.97;;;2.40;99.90;;;;;;6119787;23;20409;-78
2023/01/04 02:08:41;;;;;;;2.50;2.40;;;2.40;99.90;;;;;;6121121;23;20439;-78
2023/01/04 02:11:10;;;;;;;2.90;2.80;;;2.50;99.90;;;;;;6120080;23;20960;-78
2023/01/04 02:16:57;;;;;;;2.58;2.47;;;2.50;99.90;;;;;;6121704;23;20383;-77
2023/01/04 02:20:02;;;;;;;2.53;2.42;;;2.50;99.90;;;;;;6121861;23;20422;-78
2023/01/04 02:22:32;;;;;;;2.55;2.45;;;2.50;99.90;;;;;;6121992;23;20446;-78
2023/01/04 02:25:18;;;;;;;2.50;2.40;;;2.50;99.90;;;;;;6122252;23;20391;-78
2023/01/04 02:27:53;;;;;;;2.92;2.83;;;2.50;99.90;;;;;;6122174;23;20367;-79
2023/01/04 02:30:26;;;;;;;2.30;2.20;;;2.50;99.90;;;;;;6121718;23;20371;-80
2023/01/04 02:32:59;;;;;;;2.00;1.90;;;2.50;99.90;;;;;;6122453;23;20443;-78
2023/01/04 02:35:26;;;;;;;1.95;1.85;;;2.40;99.90;;;;;;6121342;23;20426;-79
2023/01/04 02:38:03;;;;;;;1.88;1.77;;;2.40;99.90;;;;;;6122645;23;20371;-78
2023/01/04 02:41:08;;;;;;;2.40;2.30;;;2.30;99.90;;;;;;6121049;23;20497;-78
2023/01/04 02:46:49;;;;;;;1.80;1.73;;;2.20;99.90;;;;;;6123232;23;20751;-78
2023/01/04 02:52:01;;;;;;;1.90;1.80;;;2.10;99.90;;;;;;6123018;23;20450;-78
2023/01/04 02:54:31;;;;;;;1.63;1.60;;;2.10;99.90;;;;;;6124013;23;20753;-78
2023/01/04 02:57:13;;;;;;;1.60;1.60;;;2.10;99.90;;;;;;6121094;23;20394;-78
2023/01/04 03:00:07;;;;;;;1.70;1.60;;;2.00;99.90;;;;;;6121359;23;20493;-80
2023/01/04 03:06:17;;;;;;;1.60;1.60;;;2.10;99.90;;;;;;6093979;23;20848;-77
2023/01/04 03:08:56;;;;;;;2.30;2.20;;;2.20;99.90;;;;;;6092264;23;20501;-78
2023/01/04 03:14:27;;;;;;;1.90;1.80;;;2.20;99.90;;;;;;6093993;23;20416;-78
2023/01/04 03:16:58;;;;;;;2.20;2.10;;;2.30;99.90;;;;;;6093422;23;20453;-78
2023/01/04 03:36:23;;;;;;;1.45;1.45;;;1.90;99.90;;;;;;6093543;23;20714;-77
2023/01/04 03:50:54;;;;;;;1.90;1.80;;;2.10;99.90;;;;;;6092705;23;20860;-78
2023/01/04 03:53:21;;;;;;;1.90;1.80;;;2.00;99.90;;;;;;6092243;23;20417;-78
2023/01/04 03:55:50;;;;;;;1.90;1.80;;;2.00;99.90;;;;;;6091723;23;20456;-78
2023/01/04 03:58:19;;;;;;;1.80;1.70;;;2.10;99.90;;;;;;6092358;23;20412;-82
2023/01/04 04:00:47;;;;;;;1.65;1.60;;;2.10;99.90;;;;;;6094210;23;20428;-84
2023/01/04 04:03:14;;;;;;;1.92;1.83;;;2.00;99.90;;;;;;6093092;23;20420;-85
2023/01/04 04:08:29;;;;;;;1.75;1.75;;;2.10;99.90;;;;;;6094039;23;20412;-84
2023/01/04 04:13:48;;;;;;;2.00;1.90;;;2.20;99.90;;;;;;6093837;23;20519;-84
2023/01/04 04:16:15;;;;;;;2.13;2.03;;;2.10;99.90;;;;;;6093003;23;20409;-84
2023/01/04 04:18:42;;;;;;;1.80;1.70;;;2.20;99.90;;;;;;6092479;23;20456;-84
2023/01/04 04:21:09;;;;;;;1.58;1.58;;;2.30;99.90;;;;;;6092885;23;20378;-85
2023/01/04 04:23:36;;;;;;;1.50;1.50;;;2.30;99.90;;;;;;6093653;23;20389;-82
2023/01/04 04:26:03;;;;;;;1.70;1.60;;;2.30;99.90;;;;;;6093395;23;20374;-84
2023/01/04 04:28:30;;;;;;;1.30;1.30;;;2.20;99.90;;;;;;6092008;23;20440;-84
2023/01/04 04:30:57;;;;;;;1.38;1.38;;;2.10;99.90;;;;;;6117863;23;20762;-84
2023/01/04 04:33:24;;;;;;;1.40;1.40;;;2.00;99.90;;;;;;6092977;23;20424;-84
2023/01/04 04:35:52;;;;;;;1.40;1.40;;;2.00;99.90;;;;;;6092580;23;20378;-85
2023/01/04 04:38:20;;;;;;;2.03;1.92;;;1.90;99.90;;;;;;6093035;23;20416;-84
2023/01/04 04:43:33;;;;;;;1.80;1.70;;;2.00;99.90;;;;;;6093660;23;20369;-85
2023/01/04 04:46:00;;;;;;;1.38;1.38;;;2.10;99.90;;;;;;6093209;23;20408;-84
2023/01/04 04:48:27;;;;;;;2.95;2.75;;;2.10;99.90;;;;;;6093028;23;20377;-84
2023/01/04 04:50:54;;;;;;;2.20;2.10;;;2.10;99.90;;;;;;6092784;23;20841;-84
2023/01/04 04:53:21;;;;;;;2.20;2.10;;;2.10;99.90;;;;;;6092841;23;20796;-84
2023/01/04 04:55:53;;;;;;;2.10;2.00;;;2.10;99.90;;;;;;6091902;23;20381;-84
2023/01/04 04:58:20;;;;;;;1.80;1.70;;;2.00;99.90;;;;;;6092998;23;20563;-84
2023/01/04 05:00:47;;;;;;;1.83;1.73;;;2.10;99.90;;;;;;6092248;23;20823;-84
2023/01/04 05:03:14;;;;;;;1.98;1.88;;;2.10;99.90;;;;;;6092346;23;20384;-83
2023/01/04 05:05:41;;;;;;;2.07;1.97;;;2.00;99.90;;;;;;6092249;23;20382;-84
2023/01/04 05:08:08;;;;;;;1.70;1.70;;;2.10;99.90;;;;;;6092654;23;20382;-84
2023/01/04 05:10:37;;;;;;;2.13;2.03;;;2.00;99.90;;;;;;6092351;23;20408;-84
2023/01/04 05:13:06;;;;;;;1.80;1.70;;;2.00;99.90;;;;;;6092918;23;20479;-84
2023/01/04 05:15:35;;;;;;;3.13;2.03;;;2.00;99.90;;;;;;6092137;23;20377;-84
2023/01/04 05:18:03;;;;;;;1.95;1.85;;;1.80;99.90;;;;;;6093133;23;20373;-84
2023/01/04 05:20:30;;;;;;;2.10;2.00;;;1.70;99.90;;;;;;6092718;23;20377;-84
2023/01/04 05:22:57;;;;;;;1.92;1.83;;;1.70;99.90;;;;;;6092139;23;20373;-84
2023/01/04 05:25:24;;;;;;;2.00;1.90;;;1.90;99.90;;;;;;6092727;23;20714;-84
2023/01/04 05:27:51;;;;;;;1.60;1.60;;;1.90;99.90;;;;;;6092284;23;20378;-84
2023/01/04 05:33:04;;;;;;;1.50;1.50;;;2.00;99.90;;;;;;6093700;23;20444;-84
2023/01/04 05:35:31;;;;;;;1.80;1.70;;;2.00;99.90;;;;;;6092876;23;20882;-84
2023/01/04 05:37:59;;;;;;;1.70;1.60;;;1.90;99.90;;;;;;6091952;23;20409;-84
2023/01/04 05:40:26;;;;;;;1.92;1.83;;;2.00;99.90;;;;;;6094045;23;20951;-85
2023/01/04 05:42:53;;;;;;;2.00;1.90;;;1.90;99.90;;;;;;6091732;23;20445;-84
2023/01/04 05:45:20;;;;;;;2.20;2.10;;;2.00;99.90;;;;;;6092913;23;20412;-85
2023/01/04 05:47:51;;;;;;;2.25;2.15;;;2.00;99.90;;;;;;6092012;23;20430;-84
2023/01/04 05:50:20;;;;;;;1.83;1.73;;;2.00;99.90;;;;;;6092390;23;20848;-84
2023/01/04 05:52:48;;;;;;;3.00;1.95;;;2.00;99.90;;;;;;6093058;23;20388;-85
2023/01/04 05:55:15;;;;;;;1.40;1.38;;;1.90;99.90;;;;;;6094719;23;20432;-85
2023/01/04 05:57:42;;;;;;;8.90;2.40;;;1.70;99.90;;;;;;6095301;23;20739;-84
2023/01/04 06:00:10;;;;;;;1.42;1.40;;;1.70;99.90;;;;;;6094484;23;20409;-84
2023/01/04 06:02:37;;;;;;;1.23;1.20;;;1.70;99.90;;;;;;6094832;23;20404;-84
2023/01/04 06:05:05;;;;;;;1.20;1.20;;;1.60;99.90;;;;;;6093709;23;20660;-85
2023/01/04 06:07:32;;;;;;;1.10;1.10;;;1.50;99.90;;;;;;6094837;23;20381;-85
2023/01/04 06:09:59;;;;;;;1.20;1.20;;;1.50;99.90;;;;;;6094046;23;20837;-85
2023/01/04 06:12:26;;;;;;;1.00;1.00;;;1.40;99.90;;;;;;6094601;23;20441;-85
2023/01/04 06:14:53;;;;;;;1.95;1.85;;;1.30;99.90;;;;;;6092860;23;20460;-85
2023/01/04 06:17:20;;;;;;;1.65;1.65;;;1.30;99.90;;;;;;6094190;23;20381;-85
2023/01/04 06:19:46;;;;;;;1.92;1.83;;;1.30;99.90;;;;;;6093860;23;20378;-84
2023/01/04 06:22:13;;;;;;;2.15;2.05;;;1.40;99.90;;;;;;6094313;23;20437;-85
2023/01/04 06:24:40;;;;;;;1.85;1.80;;;1.50;99.90;;;;;;6094563;23;20386;-84
2023/01/04 06:27:07;;;;;;;2.15;2.05;;;1.50;99.90;;;;;;6093692;23;20408;-85
2023/01/04 06:29:34;;;;;;;1.92;1.83;;;1.60;99.90;;;;;;6094734;23;20432;-85
2023/01/04 06:32:01;;;;;;;1.30;1.30;;;1.50;99.90;;;;;;6093058;23;20384;-85
2023/01/04 06:34:28;;;;;;;1.20;1.20;;;1.50;99.90;;;;;;6094471;23;20369;-85
2023/01/04 06:36:57;;;;;;;1.02;1.02;;;1.40;99.90;;;;;;6093707;23;20377;-85
2023/01/04 06:39:24;;;;;;;1.10;1.10;;;1.20;99.90;;;;;;6094168;23;20389;-85
2023/01/04 06:41:51;;;;;;;5.75;1.73;;;1.10;99.90;;;;;;6093176;23;20413;-84
2023/01/04 06:44:18;;;;;;;1.02;1.02;;;1.10;99.90;;;;;;6094349;23;20379;-85
2023/01/04 06:46:45;;;;;;;1.00;1.00;;;1.10;99.90;;;;;;6093918;23;20885;-85
2023/01/04 06:49:13;;;;;;;1.00;1.00;;;1.00;99.90;;;;;;6093594;23;20384;-84
2023/01/04 06:51:40;;;;;;;1.40;1.40;;;0.90;99.90;;;;;;6093729;23;20428;-85
2023/01/04 06:54:10;;;;;;;1.30;1.30;;;0.90;99.90;;;;;;6093378;23;20445;-85
2023/01/04 06:56:38;;;;;;;1.20;1.20;;;0.90;99.90;;;;;;6094286;23;20444;-84
2023/01/04 06:59:05;;;;;;;1.58;1.58;;;0.90;99.90;;;;;;6093762;23;20393;-84
2023/01/04 07:01:32;;;;;;;1.70;1.60;;;0.80;99.90;;;;;;6094095;23;20432;-84
2023/01/04 07:03:59;;;;;;;1.60;1.60;;;0.80;99.90;;;;;;6092322;23;20436;-84
2023/01/04 07:06:26;;;;;;;1.60;1.60;;;0.90;99.90;;;;;;6093362;23;20853;-84
2023/01/04 07:08:55;;;;;;;1.75;1.70;;;0.90;99.90;;;;;;6092527;23;20384;-83
2023/01/04 07:11:22;;;;;;;1.88;1.77;;;1.00;99.90;;;;;;6093504;23;20377;-85
2023/01/04 07:13:49;;;;;;;1.30;1.30;;;0.90;99.90;;;;;;6093855;23;20840;-86
2023/01/04 07:16:15;;;;;;;1.10;1.10;;;1.00;99.90;;;;;;6092757;23;20366;-85
2023/01/04 07:18:42;;;;;;;1.98;1.90;;;0.90;99.90;;;;;;6093688;23;20480;-85
2023/01/04 07:21:09;;;;;;;3.00;2.90;;;0.70;99.90;;;;;;6092703;23;20738;-85
2023/01/04 07:23:36;;;;;;;2.45;2.35;;;0.70;99.90;;;;;;6093542;23;20377;-85
2023/01/04 07:26:03;;;;;;;2.40;2.30;;;0.80;99.90;;;;;;6093440;23;20382;-84
2023/01/04 07:31:15;;;;;;;2.03;1.92;;;0.90;99.90;;;;;;6092434;23;20444;-84
2023/01/04 07:33:42;;;;;;;1.30;1.30;;;0.90;99.90;;;;;;6090762;23;20722;-85
2023/01/04 07:36:09;;;;;;;1.00;1.00;;;0.90;99.90;;;;;;6092717;23;20917;-84
2023/01/04 07:38:36;;;;;;;1.20;1.20;;;0.80;99.90;;;;;;6093338;23;20381;-85
2023/01/04 07:41:03;;;;;;;0.90;0.90;;;0.80;99.90;;;;;;6089284;23;20758;-85
2023/01/04 07:43:30;;;;;;;0.90;0.90;;;0.80;99.90;;;;;;6092730;23;20713;-86
2023/01/04 07:45:57;;;;;;;1.20;1.20;;;0.70;99.90;;;;;;6066560;23;20416;-85
2023/01/04 07:48:24;;;;;;;1.15;1.05;;;1.00;99.90;;;;;;6093704;23;20701;-85
2023/01/04 07:50:54;;;;;;;1.00;1.00;;;2.00;99.90;;;;;;6092891;23;20703;-84
2023/01/04 07:53:21;;;;;;;0.90;0.90;;;3.00;99.90;;;;;;6092143;23;20386;-85
2023/01/04 07:55:53;;;;;;;0.95;0.95;;;3.50;99.90;;;;;;6092452;23;20385;-84
2023/01/04 07:58:20;;;;;;;1.60;1.50;;;4.20;99.90;;;;;;6090474;23;20436;-86
2023/01/04 08:00:47;;;;;;;1.63;1.63;;;5.40;99.90;;;;;;6093028;23;20382;-86
2023/01/04 08:03:14;;;;;;;4.47;4.18;;;6.20;99.80;;;;;;6086694;23;20385;-86
2023/01/04 08:05:41;;;;;;;9.82;9.15;;;6.10;94.00;;;;;;6091402;23;20444;-84
2023/01/04 08:08:08;;;;;;;5.10;4.80;;;5.20;99.90;;;;;;6091294;23;20385;-85
2023/01/04 08:10:35;;;;;;;2.35;2.25;;;5.60;99.90;;;;;;6092964;23;20377;-85
2023/01/04 08:13:02;;;;;;;2.20;2.10;;;5.30;99.90;;;;;;6091993;23;20397;-85
2023/01/04 08:15:29;;;;;;;1.17;1.17;;;5.10;99.90;;;;;;6092146;23;20765;-85
2023/01/04 08:17:56;;;;;;;0.90;0.90;;;4.90;99.90;;;;;;6091130;23;20412;-86
2023/01/04 08:20:23;;;;;;;0.80;0.80;;;4.60;99.90;;;;;;6092455;23;20412;-84
2023/01/04 08:22:50;;;;;;;1.00;1.00;;;4.50;99.90;;;;;;6093259;23;20721;-85
2023/01/04 08:25:17;;;;;;;0.90;0.90;;;4.30;99.90;;;;;;6091891;23;20449;-84
2023/01/04 08:27:44;;;;;;;1.10;1.10;;;4.40;99.90;;;;;;6091319;23;20417;-85
2023/01/04 08:30:11;;;;;;;1.40;1.30;;;3.90;99.90;;;;;;6090501;23;20440;-84
2023/01/04 08:32:38;;;;;;;1.67;1.60;;;4.10;99.90;;;;;;6092457;23;20494;-85
2023/01/04 08:35:06;;;;;;;2.30;2.20;;;3.90;99.90;;;;;;6090529;23;20386;-83
2023/01/04 08:37:34;;;;;;;2.50;2.40;;;4.20;99.90;;;;;;6091917;23;20789;-84
2023/01/04 08:40:01;;;;;;;2.00;1.90;;;4.20;99.90;;;;;;6091258;23;20420;-84
2023/01/04 08:42:28;;;;;;;1.90;1.80;;;4.40;99.90;;;;;;6092634;23;20385;-83
2023/01/04 08:44:59;;;;;;;2.03;1.92;;;4.70;99.90;;;;;;6090633;23;20419;-83
2023/01/04 08:47:30;;;;;;;1.80;1.70;;;4.80;99.90;;;;;;6089418;23;20483;-83
2023/01/04 08:49:58;;;;;;;1.77;1.70;;;5.20;99.90;;;;;;6092069;23;20508;-86
2023/01/04 08:52:31;;;;;;;2.40;2.30;;;5.60;99.90;;;;;;6091661;23;20421;-86
2023/01/04 08:54:58;;;;;;;2.38;2.20;;;5.80;99.90;;;;;;6092853;23;20374;-87
2023/01/04 08:57:25;;;;;;;3.20;3.00;;;6.00;99.90;;;;;;6090848;23;20404;-85
2023/01/04 08:59:52;;;;;;;2.83;2.63;;;6.20;99.90;;;;;;6091878;23;20440;-85
2023/01/04 09:02:25;;;;;;;1.67;1.58;;;6.50;99.90;;;;;;6092797;23;20373;-84
2023/01/04 09:04:58;;;;;;;1.07;1.07;;;6.70;99.90;;;;;;6092866;23;20377;-86
2023/01/04 09:07:30;;;;;;;1.02;1.02;;;6.90;99.90;;;;;;6092121;23;20385;-85
2023/01/04 09:09:57;;;;;;;1.30;1.20;;;7.00;99.90;;;;;;6093043;23;20373;-86
2023/01/04 09:12:24;;;;;;;1.35;1.25;;;7.10;99.90;;;;;;6092038;23;20369;-85
2023/01/04 09:14:50;;;;;;;0.95;0.95;;;7.20;99.90;;;;;;6093185;23;20703;-86
2023/01/04 09:17:17;;;;;;;0.90;0.90;;;7.30;99.90;;;;;;6091332;23;20427;-86
2023/01/04 09:19:44;;;;;;;1.08;1.08;;;7.40;99.90;;;;;;6092970;23;20375;-85
2023/01/04 09:22:11;;;;;;;1.00;1.00;;;7.40;99.90;;;;;;6082431;23;20410;-86
2023/01/04 09:24:38;;;;;;;1.10;1.10;;;7.50;99.90;;;;;;6093168;23;20392;-86
2023/01/04 09:27:05;;;;;;;0.90;0.90;;;7.60;99.90;;;;;;6092234;23;20413;-86
2023/01/04 09:29:32;;;;;;;1.02;1.02;;;7.80;99.90;;;;;;6092088;23;20400;-86
2023/01/04 09:31:59;;;;;;;1.00;1.00;;;7.90;99.90;;;;;;6091131;23;20412;-86
2023/01/04 09:34:26;;;;;;;1.10;1.10;;;8.00;99.90;;;;;;6090153;23;20465;-85
2023/01/04 09:36:53;;;;;;;0.90;0.90;;;7.80;99.90;;;;;;6089568;23;20775;-83
2023/01/04 09:39:20;;;;;;;1.10;1.10;;;8.10;99.90;;;;;;6090864;23;20691;-84
2023/01/04 09:41:55;;;;;;;1.10;1.10;;;8.10;99.90;;;;;;6090932;23;20408;-84
2023/01/04 09:44:45;;;;;;;1.40;1.27;;;8.30;99.90;;;;;;6091674;23;20575;-84
2023/01/04 09:47:35;;;;;;;1.20;1.20;;;8.50;99.90;;;;;;6091642;23;20373;-85
2023/01/04 09:50:10;;;;;;;1.00;1.00;;;8.70;99.90;;;;;;6092397;23;20779;-84
2023/01/04 09:53:05;;;;;;;1.17;1.17;;;8.90;99.90;;;;;;6092017;23;20369;-84
2023/01/04 09:55:38;;;;;;;1.37;1.27;;;9.10;99.90;;;;;;6090898;23;20695;-84
2023/01/04 09:58:21;;;;;;;1.80;1.70;;;9.30;99.90;;;;;;6092974;23;20389;-84
2023/01/04 10:01:20;;;;;;;1.83;1.73;;;9.30;99.90;;;;;;6092092;23;20374;-84
2023/01/04 10:04:04;;;;;;;2.00;1.90;;;9.40;99.90;;;;;;6081959;23;20746;-84
2023/01/04 10:06:32;;;;;;;1.80;1.70;;;9.60;99.90;;;;;;6091625;23;20738;-84
2023/01/04 10:09:03;;;;;;;2.08;1.98;;;9.70;99.90;;;;;;6093332;23;20381;-84
2023/01/04 10:11:56;;;;;;;1.85;1.75;;;9.70;99.90;;;;;;6091862;23;20377;-84
2023/01/04 10:14:43;;;;;;;2.10;2.00;;;9.80;99.90;;;;;;6092779;23;20409;-83
2023/01/04 10:17:13;;;;;;;2.45;2.35;;;9.80;99.90;;;;;;6116076;23;20425;-84
2023/01/04 10:20:10;;;;;;;2.60;2.50;;;9.80;99.90;;;;;;6091678;23;20377;-86
2023/01/04 10:23:09;;;;;;;2.60;2.50;;;9.90;99.90;;;;;;6093121;23;20432;-86
2023/01/04 10:25:53;;;;;;;2.30;2.20;;;10.10;99.90;;;;;;6092279;23;20382;-84
2023/01/04 10:28:29;;;;;;;2.15;2.05;;;10.20;99.90;;;;;;6091776;23;20397;-84
2023/01/04 10:31:41;;;;;;;2.10;2.00;;;10.20;99.90;;;;;;6091892;23;20750;-83
2023/01/04 10:34:25;;;;;;;2.10;2.00;;;10.40;99.90;;;;;;6084221;23;20381;-83
2023/01/04 10:37:14;;;;;;;2.00;1.90;;;10.50;99.90;;;;;;6092602;23;20381;-84
2023/01/04 10:39:43;;;;;;;1.83;1.73;;;10.60;99.90;;;;;;6093839;23;20385;-83
2023/01/04 10:42:16;;;;;;;1.63;1.63;;;10.70;99.90;;;;;;6094372;23;20460;-85
2023/01/04 10:45:19;;;;;;;1.80;1.70;;;10.70;97.20;;;;;;6093633;23;20386;-84
2023/01/04 10:48:25;;;;;;;1.70;1.60;;;10.90;98.90;;;;;;6093873;23;20452;-83
2023/01/04 10:50:58;;;;;;;1.63;1.58;;;11.00;99.40;;;;;;6093038;23;20389;-83
2023/01/04 10:53:50;;;;;;;1.50;1.50;;;11.00;95.90;;;;;;6092950;23;20392;-83
2023/01/04 10:56:36;;;;;;;1.60;1.50;;;11.00;94.20;;;;;;6094418;23;20702;-83
2023/01/04 10:59:26;;;;;;;1.70;1.60;;;10.90;94.70;;;;;;6093298;23;20405;-83
2023/01/04 11:02:01;;;;;;;1.10;1.10;;;11.10;91.20;;;;;;6093205;23;20389;-83
2023/01/04 11:04:34;;;;;;;1.30;1.30;;;11.10;87.00;;;;;;6093103;23;20928;-83
2023/01/04 11:07:27;;;;;;;1.60;1.50;;;11.30;91.50;;;;;;6087424;23;20846;-83
2023/01/04 11:09:59;;;;;;;1.27;1.27;;;11.50;90.70;;;;;;6105903;23;20779;-82
2023/01/04 11:12:26;;;;;;;1.30;1.30;;;11.60;90.70;;;;;;6092888;23;20468;-82
2023/01/04 11:14:53;;;;;;;1.20;1.20;;;11.50;86.30;;;;;;6086944;23;20385;-83
2023/01/04 11:17:23;;;;;;;1.10;1.10;;;11.60;79.70;;;;;;6090036;23;20778;-83
2023/01/04 11:19:50;;;;;;;1.00;0.80;;;11.70;79.90;;;;;;6092619;23;20447;-83
2023/01/04 11:23:02;;;;;;;1.10;1.10;;;11.80;74.10;;;;;;6093457;23;20381;-83
2023/01/04 11:25:36;;;;;;;1.02;0.90;;;12.00;77.70;;;;;;6093630;23;20377;-83
2023/01/04 11:28:38;;;;;;;0.80;0.80;;;11.90;74.70;;;;;;6092573;23;20385;-83
2023/01/04 11:31:25;;;;;;;0.90;0.90;;;12.00;75.30;;;;;;6081311;23;20409;-82
2023/01/04 11:34:00;;;;;;;1.17;1.17;;;12.30;75.70;;;;;;6092212;23;20389;-83
2023/01/04 11:36:31;;;;;;;0.88;0.88;;;12.50;71.50;;;;;;6093472;23;20464;-82
2023/01/04 11:38:58;;;;;;;0.95;0.95;;;12.50;68.90;;;;;;6092418;23;20378;-83
2023/01/04 11:41:26;;;;;;;0.90;0.90;;;12.50;70.10;;;;;;6093025;23;20781;-82
2023/01/04 11:44:01;;;;;;;1.00;1.00;;;12.60;71.40;;;;;;6091971;23;20381;-82
2023/01/04 11:46:29;;;;;;;0.90;0.90;;;12.80;72.70;;;;;;6093540;23;20440;-82
2023/01/04 11:48:56;;;;;;;0.95;0.95;;;12.90;71.10;;;;;;6092492;23;20386;-82
2023/01/04 11:51:25;;;;;;;0.80;0.80;;;12.90;69.00;;;;;;6091322;23;20378;-83
2023/01/04 11:54:13;;;;;;;0.80;0.80;;;13.00;70.30;;;;;;6091308;23;20397;-82
2023/01/04 11:57:16;;;;;;;1.05;1.05;;;13.10;68.90;;;;;;6092566;23;20386;-82
2023/01/04 11:59:43;;;;;;;1.48;1.38;;;12.40;73.50;;;;;;6061298;23;20370;-84
2023/01/04 12:02:16;;;;;;;1.35;1.35;;;12.70;75.40;;;;;;6094769;23;20382;-82
2023/01/04 12:05:16;;;;;;;1.15;1.15;;;12.60;74.40;;;;;;6091495;23;20877;-83
2023/01/04 12:07:55;;;;;;;1.10;1.10;;;12.80;72.90;;;;;;6092962;23;20385;-82
2023/01/04 12:10:25;;;;;;;1.27;1.27;;;13.10;73.80;;;;;;6092368;23;20381;-82
2023/01/04 12:12:55;;;;;;;1.00;1.00;;;13.30;70.80;;;;;;6092914;23;20494;-83
2023/01/04 12:15:42;;;;;;;1.30;1.20;;;13.40;68.40;;;;;;6092295;23;20393;-83
2023/01/04 12:18:21;;;;;;;1.10;1.10;;;12.80;71.30;;;;;;6091953;23;20373;-83
2023/01/04 12:20:48;;;;;;;1.35;1.25;;;12.70;72.40;;;;;;6091944;23;20396;-82
2023/01/04 12:23:19;;;;;;;1.60;1.50;;;12.60;73.60;;;;;;6092129;23;20385;-83
2023/01/04 12:25:50;;;;;;;1.40;1.40;;;12.70;73.10;;;;;;6091630;23;20377;-84
2023/01/04 12:28:34;;;;;;;1.15;1.15;;;12.90;75.10;;;;;;6092547;23;20385;-83
2023/01/04 12:31:19;;;;;;;1.10;1.10;;;12.80;71.70;;;;;;6092125;23;20470;-83
2023/01/04 12:33:49;;;;;;;1.33;1.30;;;13.00;70.60;;;;;;6091142;23;20399;-82
2023/01/04 12:36:36;;;;;;;1.00;1.00;;;13.20;71.80;;;;;;6092447;23;20436;-83
2023/01/04 12:39:30;;;;;;;1.10;1.10;;;13.30;71.70;;;;;;6114172;23;20834;-83
2023/01/04 12:42:00;;;;;;;1.30;1.30;;;13.10;71.70;;;;;;6091799;23;20841;-82
2023/01/04 12:44:39;;;;;;;1.30;1.30;;;12.90;73.10;;;;;;6092384;23;20754;-84
2023/01/04 12:50:13;;;;;;;1.60;1.50;;;13.00;72.20;;;;;;6093360;23;20389;-83
2023/01/04 12:52:43;;;;;;;1.60;1.50;;;12.90;71.70;;;;;;6093003;23;20381;-83
2023/01/04 12:55:30;;;;;;;1.10;1.10;;;13.10;72.90;;;;;;6092137;23;20377;-83
2023/01/04 12:58:02;;;;;;;1.00;1.00;;;13.30;72.00;;;;;;6092873;23;20385;-83
2023/01/04 13:00:50;;;;;;;1.00;1.00;;;13.30;71.10;;;;;;6091760;23;20373;-84
2023/01/04 13:03:17;;;;;;;1.10;1.10;;;13.40;70.60;;;;;;6091625;23;20404;-83
2023/01/04 13:06:00;;;;;;;0.90;0.90;;;13.50;69.40;;;;;;6092745;23;20868;-83
2023/01/04 13:08:32;;;;;;;1.10;1.10;;;13.60;70.00;;;;;;6091224;23;20746;-83
2023/01/04 13:11:02;;;;;;;0.95;0.95;;;13.60;69.10;;;;;;6092277;23;20377;-83
2023/01/04 13:14:07;;;;;;;1.27;1.17;;;13.70;69.10;;;;;;6091134;23;20369;-83
2023/01/04 13:16:58;;;;;;;0.90;0.90;;;13.60;68.10;;;;;;6092431;23;20401;-83
2023/01/04 13:19:27;;;;;;;0.90;0.90;;;13.30;69.00;;;;;;6090720;23;20391;-83
2023/01/04 13:21:54;;;;;;;1.10;1.10;;;13.30;70.50;;;;;;6091767;23;20408;-83
2023/01/04 13:24:30;;;;;;;1.10;1.02;;;13.40;70.00;;;;;;6091274;23;20390;-82
2023/01/04 13:27:12;;;;;;;1.40;1.30;;;13.30;70.10;;;;;;6092323;23;20391;-83
2023/01/04 13:29:40;;;;;;;1.40;1.30;;;13.30;70.80;;;;;;6091530;23;20378;-83
2023/01/04 13:32:21;;;;;;;1.20;1.20;;;13.20;71.80;;;;;;6091994;23;20382;-82
2023/01/04 13:34:54;;;;;;;1.25;1.20;;;13.30;72.80;;;;;;6089836;23;20381;-83
2023/01/04 13:37:39;;;;;;;1.45;1.35;;;13.30;71.70;;;;;;6092616;23;20390;-83
2023/01/04 13:40:15;;;;;;;1.20;1.20;;;13.00;73.00;;;;;;6090627;23;20373;-83
2023/01/04 13:42:49;;;;;;;1.30;1.30;;;13.00;74.10;;;;;;6091468;23;20434;-82
2023/01/04 13:45:53;;;;;;;1.33;1.30;;;13.10;73.60;;;;;;6091180;23;20385;-83
2023/01/04 13:48:40;;;;;;;1.50;1.40;;;13.10;74.90;;;;;;6092251;23;21267;-83
2023/01/04 13:51:23;;;;;;;1.40;1.30;;;13.10;75.00;;;;;;6091601;23;20386;-82
2023/01/04 13:54:00;;;;;;;1.55;1.55;;;12.70;77.20;;;;;;6091862;23;20489;-83
2023/01/04 13:56:33;;;;;;;1.25;1.25;;;12.50;79.90;;;;;;6092065;23;20381;-82
2023/01/04 13:59:00;;;;;;;1.92;1.83;;;12.40;81.30;;;;;;6091977;23;20842;-82
2023/01/04 14:01:34;;;;;;;1.67;1.57;;;12.30;83.70;;;;;;6091655;23;20378;-82
2023/01/04 14:04:10;;;;;;;2.10;2.00;;;12.30;84.60;;;;;;6090773;23;20722;-82
2023/01/04 14:06:48;;;;;;;1.70;1.60;;;12.20;84.60;;;;;;6091259;23;20429;-84
2023/01/04 14:09:23;;;;;;;1.98;1.88;;;12.30;86.70;;;;;;6090367;23;20385;-82
2023/01/04 14:12:03;;;;;;;1.67;1.58;;;12.40;84.10;;;;;;6092522;23;20377;-83
2023/01/04 14:14:58;;;;;;;2.15;2.05;;;12.30;85.50;;;;;;6092605;23;20417;-83
2023/01/04 14:17:31;;;;;;;1.65;1.58;;;12.30;87.10;;;;;;6093197;23;20457;-83
2023/01/04 14:20:05;;;;;;;1.80;1.70;;;12.40;87.50;;;;;;6093216;23;20767;-83
2023/01/04 14:22:36;;;;;;;2.00;1.90;;;12.50;87.50;;;;;;6092745;23;20385;-83
2023/01/04 14:25:36;;;;;;;2.10;2.00;;;12.50;85.60;;;;;;6093174;23;20377;-82